sensor_id;sensor_type;location;lat;lon;timestamp;P1;durP1;ratioP1;P2;durP2;ratioP2
24107;SDS011;12280;51.362;6.694;2022-10-16T00:01:26;0.40;;;0.40;;
24107;SDS011;12280;51.362;6.694;2022-10-16T00:03:53;0.30;;;0.30;;
24107;SDS011;12280;51.362;6.694;2022-10-16T00:06:20;0.70;;;0.70;;
24107;SDS011;12280;51.362;6.694;2022-10-16T00:08:46;1.57;;;1.47;;
24107;SDS011;12280;51.362;6.694;2022-10-16T00:11:14;1.43;;;1.33;;
24107;SDS011;12280;51.362;6.694;2022-10-16T00:13:41;0.50;;;0.50;;
24107;SDS011;12280;51.362;6.694;2022-10-16T00:16:07;0.97;;;0.97;;
24107;SDS011;12280;51.362;6.694;2022-10-16T00:18:34;0.37;;;0.37;;
24107;SDS011;12280;51.362;6.694;2022-10-16T00:21:05;1.83;;;1.73;;
24107;SDS011;12280;51.362;6.694;2022-10-16T00:23:31;1.03;;;1.03;;
24107;SDS011;12280;51.362;6.694;2022-10-16T00:25:59;0.97;;;0.87;;
24107;SDS011;12280;51.362;6.694;2022-10-16T00:28:26;0.90;;;0.90;;
24107;SDS011;12280;51.362;6.694;2022-10-16T00:30:52;2.20;;;2.10;;
24107;SDS011;12280;51.362;6.694;2022-10-16T00:33:19;0.20;;;0.20;;
24107;SDS011;12280;51.362;6.694;2022-10-16T00:35:45;0.80;;;0.80;;
24107;SDS011;12280;51.362;6.694;2022-10-16T00:38:11;1.73;;;1.40;;
24107;SDS011;12280;51.362;6.694;2022-10-16T00:40:37;0.47;;;0.47;;
24107;SDS011;12280;51.362;6.694;2022-10-16T00:45:59;0.40;;;0.40;;
24107;SDS011;12280;51.362;6.694;2022-10-16T00:48:26;0.60;;;0.60;;
24107;SDS011;12280;51.362;6.694;2022-10-16T00:50:52;0.70;;;0.70;;
24107;SDS011;12280;51.362;6.694;2022-10-16T00:53:18;0.30;;;0.30;;
24107;SDS011;12280;51.362;6.694;2022-10-16T00:55:44;1.17;;;1.17;;
24107;SDS011;12280;51.362;6.694;2022-10-16T00:58:10;0.30;;;0.30;;
24107;SDS011;12280;51.362;6.694;2022-10-16T01:00:36;7.13;;;1.23;;
24107;SDS011;12280;51.362;6.694;2022-10-16T01:03:03;1.40;;;1.20;;
24107;SDS011;12280;51.362;6.694;2022-10-16T01:05:39;1.17;;;1.17;;
24107;SDS011;12280;51.362;6.694;2022-10-16T01:08:10;0.83;;;0.83;;
24107;SDS011;12280;51.362;6.694;2022-10-16T01:10:57;0.77;;;0.77;;
24107;SDS011;12280;51.362;6.694;2022-10-16T01:13:33;0.40;;;0.40;;
24107;SDS011;12280;51.362;6.694;2022-10-16T01:18:36;0.30;;;0.30;;
24107;SDS011;12280;51.362;6.694;2022-10-16T01:21:04;0.80;;;0.80;;
24107;SDS011;12280;51.362;6.694;2022-10-16T01:28:42;0.70;;;0.70;;
24107;SDS011;12280;51.362;6.694;2022-10-16T01:31:10;0.80;;;0.80;;
24107;SDS011;12280;51.362;6.694;2022-10-16T01:33:40;0.50;;;0.50;;
24107;SDS011;12280;51.362;6.694;2022-10-16T01:36:19;0.20;;;0.20;;
24107;SDS011;12280;51.362;6.694;2022-10-16T01:38:47;0.20;;;0.20;;
24107;SDS011;12280;51.362;6.694;2022-10-16T01:44:03;0.70;;;0.63;;
24107;SDS011;12280;51.362;6.694;2022-10-16T01:46:27;0.30;;;0.30;;
24107;SDS011;12280;51.362;6.694;2022-10-16T01:48:54;0.20;;;0.20;;
24107;SDS011;12280;51.362;6.694;2022-10-16T01:51:21;0.73;;;0.73;;
24107;SDS011;12280;51.362;6.694;2022-10-16T01:53:48;0.30;;;0.30;;
24107;SDS011;12280;51.362;6.694;2022-10-16T01:56:16;0.20;;;0.20;;
24107;SDS011;12280;51.362;6.694;2022-10-16T01:58:47;0.53;;;0.53;;
24107;SDS011;12280;51.362;6.694;2022-10-16T02:01:15;2.03;;;1.47;;
24107;SDS011;12280;51.362;6.694;2022-10-16T02:03:42;2.60;;;2.47;;
24107;SDS011;12280;51.362;6.694;2022-10-16T02:06:10;3.70;;;3.50;;
24107;SDS011;12280;51.362;6.694;2022-10-16T02:08:37;5.20;;;4.90;;
24107;SDS011;12280;51.362;6.694;2022-10-16T02:11:05;3.97;;;3.77;;
24107;SDS011;12280;51.362;6.694;2022-10-16T02:13:48;6.77;;;6.13;;
24107;SDS011;12280;51.362;6.694;2022-10-16T02:16:15;2.93;;;2.83;;
24107;SDS011;12280;51.362;6.694;2022-10-16T02:18:42;7.60;;;3.27;;
24107;SDS011;12280;51.362;6.694;2022-10-16T02:21:17;5.60;;;5.33;;
24107;SDS011;12280;51.362;6.694;2022-10-16T02:26:23;4.83;;;3.20;;
24107;SDS011;12280;51.362;6.694;2022-10-16T02:28:53;6.33;;;4.90;;
24107;SDS011;12280;51.362;6.694;2022-10-16T02:31:23;9.13;;;2.80;;
24107;SDS011;12280;51.362;6.694;2022-10-16T02:33:51;2.57;;;2.50;;
24107;SDS011;12280;51.362;6.694;2022-10-16T02:36:18;8.57;;;5.00;;
24107;SDS011;12280;51.362;6.694;2022-10-16T02:38:44;4.77;;;2.73;;
24107;SDS011;12280;51.362;6.694;2022-10-16T02:41:10;3.97;;;3.20;;
24107;SDS011;12280;51.362;6.694;2022-10-16T02:43:37;3.93;;;3.73;;
24107;SDS011;12280;51.362;6.694;2022-10-16T02:46:03;2.37;;;1.43;;
24107;SDS011;12280;51.362;6.694;2022-10-16T02:48:29;3.60;;;3.30;;
24107;SDS011;12280;51.362;6.694;2022-10-16T02:50:55;2.10;;;1.90;;
24107;SDS011;12280;51.362;6.694;2022-10-16T02:53:22;4.33;;;3.37;;
24107;SDS011;12280;51.362;6.694;2022-10-16T02:55:48;1.33;;;1.23;;
24107;SDS011;12280;51.362;6.694;2022-10-16T02:58:14;1.70;;;1.70;;
24107;SDS011;12280;51.362;6.694;2022-10-16T03:00:40;0.80;;;0.80;;
24107;SDS011;12280;51.362;6.694;2022-10-16T03:03:07;1.53;;;1.43;;
24107;SDS011;12280;51.362;6.694;2022-10-16T03:05:33;2.67;;;2.50;;
24107;SDS011;12280;51.362;6.694;2022-10-16T03:07:59;1.30;;;1.30;;
24107;SDS011;12280;51.362;6.694;2022-10-16T03:10:26;1.60;;;1.60;;
24107;SDS011;12280;51.362;6.694;2022-10-16T03:12:52;1.93;;;1.83;;
24107;SDS011;12280;51.362;6.694;2022-10-16T03:15:18;0.30;;;0.30;;
24107;SDS011;12280;51.362;6.694;2022-10-16T03:17:44;0.20;;;0.20;;
24107;SDS011;12280;51.362;6.694;2022-10-16T03:20:10;0.40;;;0.40;;
24107;SDS011;12280;51.362;6.694;2022-10-16T03:22:36;0.30;;;0.30;;
24107;SDS011;12280;51.362;6.694;2022-10-16T03:25:02;0.30;;;0.30;;
24107;SDS011;12280;51.362;6.694;2022-10-16T03:27:28;0.30;;;0.30;;
24107;SDS011;12280;51.362;6.694;2022-10-16T03:29:54;0.30;;;0.30;;
24107;SDS011;12280;51.362;6.694;2022-10-16T03:32:20;1.03;;;1.03;;
24107;SDS011;12280;51.362;6.694;2022-10-16T03:34:47;0.97;;;0.97;;
24107;SDS011;12280;51.362;6.694;2022-10-16T03:37:13;0.40;;;0.40;;
24107;SDS011;12280;51.362;6.694;2022-10-16T03:39:39;0.30;;;0.30;;
24107;SDS011;12280;51.362;6.694;2022-10-16T03:42:05;0.57;;;0.57;;
24107;SDS011;12280;51.362;6.694;2022-10-16T03:44:31;0.70;;;0.70;;
24107;SDS011;12280;51.362;6.694;2022-10-16T03:46:57;0.50;;;0.50;;
24107;SDS011;12280;51.362;6.694;2022-10-16T03:49:23;0.50;;;0.50;;
24107;SDS011;12280;51.362;6.694;2022-10-16T03:51:49;7.07;;;1.03;;
24107;SDS011;12280;51.362;6.694;2022-10-16T03:54:15;0.30;;;0.30;;
24107;SDS011;12280;51.362;6.694;2022-10-16T03:56:41;0.30;;;0.30;;
24107;SDS011;12280;51.362;6.694;2022-10-16T03:59:07;0.50;;;0.50;;
24107;SDS011;12280;51.362;6.694;2022-10-16T04:01:33;2.47;;;2.33;;
24107;SDS011;12280;51.362;6.694;2022-10-16T04:03:59;0.87;;;0.87;;
24107;SDS011;12280;51.362;6.694;2022-10-16T04:06:25;0.80;;;0.80;;
24107;SDS011;12280;51.362;6.694;2022-10-16T04:08:51;0.40;;;0.40;;
24107;SDS011;12280;51.362;6.694;2022-10-16T04:11:17;0.83;;;0.83;;
24107;SDS011;12280;51.362;6.694;2022-10-16T04:13:43;0.60;;;0.60;;
24107;SDS011;12280;51.362;6.694;2022-10-16T04:16:09;0.40;;;0.40;;
24107;SDS011;12280;51.362;6.694;2022-10-16T04:18:35;0.70;;;0.70;;
24107;SDS011;12280;51.362;6.694;2022-10-16T04:21:03;0.47;;;0.47;;
24107;SDS011;12280;51.362;6.694;2022-10-16T04:23:29;0.30;;;0.30;;
24107;SDS011;12280;51.362;6.694;2022-10-16T04:25:55;0.30;;;0.30;;
24107;SDS011;12280;51.362;6.694;2022-10-16T04:28:21;0.80;;;0.80;;
24107;SDS011;12280;51.362;6.694;2022-10-16T04:30:47;0.47;;;0.47;;
24107;SDS011;12280;51.362;6.694;2022-10-16T04:33:13;0.57;;;0.57;;
24107;SDS011;12280;51.362;6.694;2022-10-16T04:35:39;0.30;;;0.30;;
24107;SDS011;12280;51.362;6.694;2022-10-16T04:38:05;0.50;;;0.50;;
24107;SDS011;12280;51.362;6.694;2022-10-16T04:40:31;0.40;;;0.40;;
24107;SDS011;12280;51.362;6.694;2022-10-16T04:43:03;0.20;;;0.20;;
24107;SDS011;12280;51.362;6.694;2022-10-16T04:45:29;1.07;;;1.07;;
24107;SDS011;12280;51.362;6.694;2022-10-16T04:47:59;0.50;;;0.50;;
24107;SDS011;12280;51.362;6.694;2022-10-16T04:50:25;0.40;;;0.40;;
24107;SDS011;12280;51.362;6.694;2022-10-16T04:52:51;0.40;;;0.40;;
24107;SDS011;12280;51.362;6.694;2022-10-16T04:55:17;0.77;;;0.77;;
24107;SDS011;12280;51.362;6.694;2022-10-16T04:57:43;0.40;;;0.40;;
24107;SDS011;12280;51.362;6.694;2022-10-16T05:00:09;0.30;;;0.30;;
24107;SDS011;12280;51.362;6.694;2022-10-16T05:02:36;1.13;;;1.13;;
24107;SDS011;12280;51.362;6.694;2022-10-16T05:05:02;0.27;;;0.27;;
24107;SDS011;12280;51.362;6.694;2022-10-16T05:07:28;0.87;;;0.87;;
24107;SDS011;12280;51.362;6.694;2022-10-16T05:09:54;0.57;;;0.57;;
24107;SDS011;12280;51.362;6.694;2022-10-16T05:12:20;0.30;;;0.30;;
24107;SDS011;12280;51.362;6.694;2022-10-16T05:14:46;0.50;;;0.50;;
24107;SDS011;12280;51.362;6.694;2022-10-16T05:17:12;1.07;;;1.07;;
24107;SDS011;12280;51.362;6.694;2022-10-16T05:19:38;0.70;;;0.70;;
24107;SDS011;12280;51.362;6.694;2022-10-16T05:22:04;1.73;;;1.63;;
24107;SDS011;12280;51.362;6.694;2022-10-16T05:24:30;0.73;;;0.73;;
24107;SDS011;12280;51.362;6.694;2022-10-16T05:26:56;1.17;;;0.93;;
24107;SDS011;12280;51.362;6.694;2022-10-16T05:29:22;0.30;;;0.30;;
24107;SDS011;12280;51.362;6.694;2022-10-16T05:31:52;0.47;;;0.47;;
24107;SDS011;12280;51.362;6.694;2022-10-16T05:34:19;0.53;;;0.53;;
24107;SDS011;12280;51.362;6.694;2022-10-16T05:36:45;0.30;;;0.30;;
24107;SDS011;12280;51.362;6.694;2022-10-16T05:39:11;0.20;;;0.20;;
24107;SDS011;12280;51.362;6.694;2022-10-16T05:41:37;1.03;;;1.03;;
24107;SDS011;12280;51.362;6.694;2022-10-16T05:44:04;0.20;;;0.20;;
24107;SDS011;12280;51.362;6.694;2022-10-16T05:46:30;0.40;;;0.40;;
24107;SDS011;12280;51.362;6.694;2022-10-16T05:48:56;0.30;;;0.30;;
24107;SDS011;12280;51.362;6.694;2022-10-16T05:51:23;0.30;;;0.30;;
24107;SDS011;12280;51.362;6.694;2022-10-16T05:53:49;0.67;;;0.67;;
24107;SDS011;12280;51.362;6.694;2022-10-16T05:56:15;0.80;;;0.80;;
24107;SDS011;12280;51.362;6.694;2022-10-16T05:58:41;0.37;;;0.37;;
24107;SDS011;12280;51.362;6.694;2022-10-16T06:01:10;0.30;;;0.30;;
24107;SDS011;12280;51.362;6.694;2022-10-16T06:03:37;0.50;;;0.50;;
24107;SDS011;12280;51.362;6.694;2022-10-16T06:06:09;0.40;;;0.40;;
24107;SDS011;12280;51.362;6.694;2022-10-16T06:08:39;0.50;;;0.50;;
24107;SDS011;12280;51.362;6.694;2022-10-16T06:11:06;0.40;;;0.40;;
24107;SDS011;12280;51.362;6.694;2022-10-16T06:13:32;1.17;;;1.17;;
24107;SDS011;12280;51.362;6.694;2022-10-16T06:15:58;0.60;;;0.60;;
24107;SDS011;12280;51.362;6.694;2022-10-16T06:18:25;0.30;;;0.30;;
24107;SDS011;12280;51.362;6.694;2022-10-16T06:20:52;1.50;;;1.30;;
24107;SDS011;12280;51.362;6.694;2022-10-16T06:23:18;0.30;;;0.30;;
24107;SDS011;12280;51.362;6.694;2022-10-16T06:25:44;0.30;;;0.30;;
24107;SDS011;12280;51.362;6.694;2022-10-16T06:28:10;1.30;;;1.30;;
24107;SDS011;12280;51.362;6.694;2022-10-16T06:30:36;1.50;;;0.60;;
24107;SDS011;12280;51.362;6.694;2022-10-16T06:33:04;0.30;;;0.30;;
24107;SDS011;12280;51.362;6.694;2022-10-16T06:35:30;0.30;;;0.30;;
24107;SDS011;12280;51.362;6.694;2022-10-16T06:37:57;2.43;;;1.70;;
24107;SDS011;12280;51.362;6.694;2022-10-16T06:40:23;0.40;;;0.40;;
24107;SDS011;12280;51.362;6.694;2022-10-16T06:42:49;2.30;;;2.20;;
24107;SDS011;12280;51.362;6.694;2022-10-16T06:45:16;0.30;;;0.30;;
24107;SDS011;12280;51.362;6.694;2022-10-16T06:47:42;1.10;;;1.10;;
24107;SDS011;12280;51.362;6.694;2022-10-16T06:50:08;0.77;;;0.60;;
24107;SDS011;12280;51.362;6.694;2022-10-16T06:52:37;1.67;;;1.60;;
24107;SDS011;12280;51.362;6.694;2022-10-16T06:55:03;0.53;;;0.53;;
24107;SDS011;12280;51.362;6.694;2022-10-16T06:57:31;5.60;;;2.07;;
24107;SDS011;12280;51.362;6.694;2022-10-16T06:59:57;0.60;;;0.60;;
24107;SDS011;12280;51.362;6.694;2022-10-16T07:02:23;0.83;;;0.83;;
24107;SDS011;12280;51.362;6.694;2022-10-16T07:04:49;0.47;;;0.47;;
24107;SDS011;12280;51.362;6.694;2022-10-16T07:07:15;0.33;;;0.33;;
24107;SDS011;12280;51.362;6.694;2022-10-16T07:09:41;0.30;;;0.30;;
24107;SDS011;12280;51.362;6.694;2022-10-16T07:12:07;0.90;;;0.90;;
24107;SDS011;12280;51.362;6.694;2022-10-16T07:14:33;1.20;;;0.70;;
24107;SDS011;12280;51.362;6.694;2022-10-16T07:16:59;1.03;;;1.03;;
24107;SDS011;12280;51.362;6.694;2022-10-16T07:19:25;0.80;;;0.80;;
24107;SDS011;12280;51.362;6.694;2022-10-16T07:21:51;0.47;;;0.47;;
24107;SDS011;12280;51.362;6.694;2022-10-16T07:24:17;0.20;;;0.20;;
24107;SDS011;12280;51.362;6.694;2022-10-16T07:26:44;1.70;;;1.70;;
24107;SDS011;12280;51.362;6.694;2022-10-16T07:29:12;0.53;;;0.53;;
24107;SDS011;12280;51.362;6.694;2022-10-16T07:31:38;0.33;;;0.33;;
24107;SDS011;12280;51.362;6.694;2022-10-16T07:34:05;0.40;;;0.40;;
24107;SDS011;12280;51.362;6.694;2022-10-16T07:36:31;0.30;;;0.30;;
24107;SDS011;12280;51.362;6.694;2022-10-16T07:38:57;0.60;;;0.60;;
24107;SDS011;12280;51.362;6.694;2022-10-16T07:41:23;0.37;;;0.37;;
24107;SDS011;12280;51.362;6.694;2022-10-16T07:43:50;0.83;;;0.70;;
24107;SDS011;12280;51.362;6.694;2022-10-16T07:46:17;2.23;;;2.03;;
24107;SDS011;12280;51.362;6.694;2022-10-16T07:48:43;0.93;;;0.93;;
24107;SDS011;12280;51.362;6.694;2022-10-16T07:51:12;0.30;;;0.30;;
24107;SDS011;12280;51.362;6.694;2022-10-16T07:53:38;0.37;;;0.37;;
24107;SDS011;12280;51.362;6.694;2022-10-16T07:56:05;0.20;;;0.20;;
24107;SDS011;12280;51.362;6.694;2022-10-16T07:58:32;0.23;;;0.23;;
24107;SDS011;12280;51.362;6.694;2022-10-16T08:00:58;1.47;;;1.40;;
24107;SDS011;12280;51.362;6.694;2022-10-16T08:03:24;0.53;;;0.53;;
24107;SDS011;12280;51.362;6.694;2022-10-16T08:05:50;0.30;;;0.30;;
24107;SDS011;12280;51.362;6.694;2022-10-16T08:08:17;0.30;;;0.30;;
24107;SDS011;12280;51.362;6.694;2022-10-16T08:10:43;0.53;;;0.53;;
24107;SDS011;12280;51.362;6.694;2022-10-16T08:13:09;0.60;;;0.60;;
24107;SDS011;12280;51.362;6.694;2022-10-16T08:15:36;0.30;;;0.30;;
24107;SDS011;12280;51.362;6.694;2022-10-16T08:18:03;1.07;;;1.07;;
24107;SDS011;12280;51.362;6.694;2022-10-16T08:20:29;0.43;;;0.43;;
24107;SDS011;12280;51.362;6.694;2022-10-16T08:22:56;0.70;;;0.70;;
24107;SDS011;12280;51.362;6.694;2022-10-16T08:25:22;11.33;;;1.90;;
24107;SDS011;12280;51.362;6.694;2022-10-16T08:27:49;0.43;;;0.43;;
24107;SDS011;12280;51.362;6.694;2022-10-16T08:30:15;0.37;;;0.37;;
24107;SDS011;12280;51.362;6.694;2022-10-16T08:32:42;0.40;;;0.40;;
24107;SDS011;12280;51.362;6.694;2022-10-16T08:35:11;1.43;;;1.33;;
24107;SDS011;12280;51.362;6.694;2022-10-16T08:37:38;0.57;;;0.57;;
24107;SDS011;12280;51.362;6.694;2022-10-16T08:40:04;0.40;;;0.40;;
24107;SDS011;12280;51.362;6.694;2022-10-16T08:47:35;0.40;;;0.40;;
24107;SDS011;12280;51.362;6.694;2022-10-16T08:50:12;1.73;;;0.80;;
24107;SDS011;12280;51.362;6.694;2022-10-16T08:52:39;0.37;;;0.37;;
24107;SDS011;12280;51.362;6.694;2022-10-16T08:55:06;0.33;;;0.33;;
24107;SDS011;12280;51.362;6.694;2022-10-16T08:57:32;1.07;;;1.07;;
24107;SDS011;12280;51.362;6.694;2022-10-16T09:00:05;0.33;;;0.33;;
24107;SDS011;12280;51.362;6.694;2022-10-16T09:02:35;1.03;;;1.03;;
24107;SDS011;12280;51.362;6.694;2022-10-16T09:05:22;0.47;;;0.47;;
24107;SDS011;12280;51.362;6.694;2022-10-16T09:10:25;0.93;;;0.93;;
24107;SDS011;12280;51.362;6.694;2022-10-16T09:20:42;0.10;;;0.10;;
24107;SDS011;12280;51.362;6.694;2022-10-16T09:23:17;0.50;;;0.50;;
24107;SDS011;12280;51.362;6.694;2022-10-16T09:25:45;0.77;;;0.77;;
24107;SDS011;12280;51.362;6.694;2022-10-16T09:28:12;0.40;;;0.40;;
24107;SDS011;12280;51.362;6.694;2022-10-16T09:30:38;0.50;;;0.50;;
24107;SDS011;12280;51.362;6.694;2022-10-16T09:33:04;3.07;;;0.70;;
24107;SDS011;12280;51.362;6.694;2022-10-16T09:35:32;0.20;;;0.20;;
24107;SDS011;12280;51.362;6.694;2022-10-16T09:38:00;0.20;;;0.20;;
24107;SDS011;12280;51.362;6.694;2022-10-16T09:40:34;0.50;;;0.50;;
24107;SDS011;12280;51.362;6.694;2022-10-16T09:43:17;0.30;;;0.30;;
24107;SDS011;12280;51.362;6.694;2022-10-16T09:46:45;0.57;;;0.57;;
24107;SDS011;12280;51.362;6.694;2022-10-16T09:48:43;0.20;;;0.20;;
24107;SDS011;12280;51.362;6.694;2022-10-16T09:51:23;0.60;;;0.60;;
24107;SDS011;12280;51.362;6.694;2022-10-16T09:53:53;0.20;;;0.20;;
24107;SDS011;12280;51.362;6.694;2022-10-16T09:56:32;0.50;;;0.50;;
24107;SDS011;12280;51.362;6.694;2022-10-16T09:59:01;0.40;;;0.40;;
24107;SDS011;12280;51.362;6.694;2022-10-16T10:01:39;0.37;;;0.37;;
24107;SDS011;12280;51.362;6.694;2022-10-16T10:04:06;0.20;;;0.20;;
24107;SDS011;12280;51.362;6.694;2022-10-16T10:06:36;0.33;;;0.33;;
24107;SDS011;12280;51.362;6.694;2022-10-16T10:09:13;0.50;;;0.50;;
24107;SDS011;12280;51.362;6.694;2022-10-16T10:14:18;0.40;;;0.37;;
24107;SDS011;12280;51.362;6.694;2022-10-16T10:16:44;0.27;;;0.27;;
24107;SDS011;12280;51.362;6.694;2022-10-16T10:19:20;0.30;;;0.30;;
24107;SDS011;12280;51.362;6.694;2022-10-16T10:21:48;0.30;;;0.30;;
24107;SDS011;12280;51.362;6.694;2022-10-16T10:24:15;0.20;;;0.20;;
24107;SDS011;12280;51.362;6.694;2022-10-16T10:26:52;0.43;;;0.43;;
24107;SDS011;12280;51.362;6.694;2022-10-16T10:29:23;1.83;;;1.37;;
24107;SDS011;12280;51.362;6.694;2022-10-16T10:34:54;0.23;;;0.23;;
24107;SDS011;12280;51.362;6.694;2022-10-16T10:40:03;0.20;;;0.20;;
24107;SDS011;12280;51.362;6.694;2022-10-16T10:42:36;0.23;;;0.23;;
24107;SDS011;12280;51.362;6.694;2022-10-16T10:45:21;0.43;;;0.43;;
24107;SDS011;12280;51.362;6.694;2022-10-16T10:50:24;0.33;;;0.33;;
24107;SDS011;12280;51.362;6.694;2022-10-16T10:53:40;0.17;;;0.17;;
24107;SDS011;12280;51.362;6.694;2022-10-16T10:55:39;0.30;;;0.30;;
24107;SDS011;12280;51.362;6.694;2022-10-16T10:58:20;0.20;;;0.20;;
24107;SDS011;12280;51.362;6.694;2022-10-16T11:00:57;0.20;;;0.20;;
24107;SDS011;12280;51.362;6.694;2022-10-16T11:03:54;0.10;;;0.10;;
24107;SDS011;12280;51.362;6.694;2022-10-16T11:06:17;0.47;;;0.47;;
24107;SDS011;12280;51.362;6.694;2022-10-16T11:14:58;0.13;;;0.13;;
24107;SDS011;12280;51.362;6.694;2022-10-16T11:17:07;0.57;;;0.57;;
24107;SDS011;12280;51.362;6.694;2022-10-16T11:19:36;0.20;;;0.20;;
24107;SDS011;12280;51.362;6.694;2022-10-16T11:22:05;0.30;;;0.30;;
24107;SDS011;12280;51.362;6.694;2022-10-16T11:24:55;0.97;;;0.97;;
24107;SDS011;12280;51.362;6.694;2022-10-16T11:27:31;0.20;;;0.20;;
24107;SDS011;12280;51.362;6.694;2022-10-16T11:29:59;0.10;;;0.10;;
24107;SDS011;12280;51.362;6.694;2022-10-16T11:32:32;0.40;;;0.40;;
24107;SDS011;12280;51.362;6.694;2022-10-16T11:35:11;0.17;;;0.17;;
24107;SDS011;12280;51.362;6.694;2022-10-16T11:37:42;0.20;;;0.20;;
24107;SDS011;12280;51.362;6.694;2022-10-16T11:40:18;0.10;;;0.10;;
24107;SDS011;12280;51.362;6.694;2022-10-16T11:42:48;1.27;;;1.13;;
24107;SDS011;12280;51.362;6.694;2022-10-16T11:47:57;0.43;;;0.43;;
24107;SDS011;12280;51.362;6.694;2022-10-16T11:50:33;0.10;;;0.10;;
24107;SDS011;12280;51.362;6.694;2022-10-16T11:53:05;0.10;;;0.10;;
24107;SDS011;12280;51.362;6.694;2022-10-16T11:55:38;0.10;;;0.10;;
24107;SDS011;12280;51.362;6.694;2022-10-16T11:58:16;0.17;;;0.17;;
24107;SDS011;12280;51.362;6.694;2022-10-16T12:03:21;0.20;;;0.20;;
24107;SDS011;12280;51.362;6.694;2022-10-16T12:06:23;0.30;;;0.30;;
24107;SDS011;12280;51.362;6.694;2022-10-16T12:08:44;0.10;;;0.10;;
24107;SDS011;12280;51.362;6.694;2022-10-16T12:11:24;0.20;;;0.20;;
24107;SDS011;12280;51.362;6.694;2022-10-16T12:16:53;0.10;;;0.10;;
24107;SDS011;12280;51.362;6.694;2022-10-16T12:19:20;0.30;;;0.30;;
24107;SDS011;12280;51.362;6.694;2022-10-16T12:21:46;0.50;;;0.50;;
24107;SDS011;12280;51.362;6.694;2022-10-16T12:24:26;0.20;;;0.20;;
24107;SDS011;12280;51.362;6.694;2022-10-16T12:26:53;0.20;;;0.20;;
24107;SDS011;12280;51.362;6.694;2022-10-16T12:29:29;0.20;;;0.20;;
24107;SDS011;12280;51.362;6.694;2022-10-16T12:31:56;0.20;;;0.20;;
24107;SDS011;12280;51.362;6.694;2022-10-16T12:34:23;0.43;;;0.43;;
24107;SDS011;12280;51.362;6.694;2022-10-16T12:36:52;0.20;;;0.20;;
24107;SDS011;12280;51.362;6.694;2022-10-16T12:39:27;0.25;;;0.25;;
24107;SDS011;12280;51.362;6.694;2022-10-16T12:42:04;0.13;;;0.13;;
24107;SDS011;12280;51.362;6.694;2022-10-16T12:44:34;0.10;;;0.10;;
24107;SDS011;12280;51.362;6.694;2022-10-16T12:47:00;0.55;;;0.55;;
24107;SDS011;12280;51.362;6.694;2022-10-16T12:49:31;0.10;;;0.10;;
24107;SDS011;12280;51.362;6.694;2022-10-16T12:51:58;0.20;;;0.20;;
24107;SDS011;12280;51.362;6.694;2022-10-16T12:54:37;0.22;;;0.22;;
24107;SDS011;12280;51.362;6.694;2022-10-16T12:57:21;0.10;;;0.10;;
24107;SDS011;12280;51.362;6.694;2022-10-16T13:10:02;0.20;;;0.20;;
24107;SDS011;12280;51.362;6.694;2022-10-16T13:12:45;0.20;;;0.20;;
24107;SDS011;12280;51.362;6.694;2022-10-16T13:17:48;0.60;;;0.60;;
24107;SDS011;12280;51.362;6.694;2022-10-16T13:30:28;0.20;;;0.20;;
24107;SDS011;12280;51.362;6.694;2022-10-16T13:33:04;0.40;;;0.40;;
24107;SDS011;12280;51.362;6.694;2022-10-16T13:35:32;0.63;;;0.63;;
24107;SDS011;12280;51.362;6.694;2022-10-16T13:38:08;0.17;;;0.17;;
24107;SDS011;12280;51.362;6.694;2022-10-16T13:40:47;0.20;;;0.20;;
24107;SDS011;12280;51.362;6.694;2022-10-16T13:43:13;0.70;;;0.70;;
24107;SDS011;12280;51.362;6.694;2022-10-16T13:45:39;0.75;;;0.75;;
24107;SDS011;12280;51.362;6.694;2022-10-16T13:48:06;0.32;;;0.32;;
24107;SDS011;12280;51.362;6.694;2022-10-16T13:50:37;0.10;;;0.10;;
24107;SDS011;12280;51.362;6.694;2022-10-16T13:53:06;0.10;;;0.10;;
24107;SDS011;12280;51.362;6.694;2022-10-16T13:55:32;0.30;;;0.30;;
24107;SDS011;12280;51.362;6.694;2022-10-16T13:58:08;0.20;;;0.20;;
24107;SDS011;12280;51.362;6.694;2022-10-16T14:00:34;0.10;;;0.10;;
24107;SDS011;12280;51.362;6.694;2022-10-16T14:03:02;0.13;;;0.13;;
24107;SDS011;12280;51.362;6.694;2022-10-16T14:05:29;0.10;;;0.10;;
24107;SDS011;12280;51.362;6.694;2022-10-16T14:07:55;0.10;;;0.10;;
24107;SDS011;12280;51.362;6.694;2022-10-16T14:10:29;0.20;;;0.20;;
24107;SDS011;12280;51.362;6.694;2022-10-16T14:12:56;4.32;;;0.45;;
24107;SDS011;12280;51.362;6.694;2022-10-16T14:15:23;0.10;;;0.10;;
24107;SDS011;12280;51.362;6.694;2022-10-16T14:17:50;1.00;;;0.95;;
24107;SDS011;12280;51.362;6.694;2022-10-16T14:20:16;0.15;;;0.15;;
24107;SDS011;12280;51.362;6.694;2022-10-16T14:22:42;1.70;;;0.75;;
24107;SDS011;12280;51.362;6.694;2022-10-16T14:27:44;0.10;;;0.10;;
24107;SDS011;12280;51.362;6.694;2022-10-16T14:30:12;0.20;;;0.20;;
24107;SDS011;12280;51.362;6.694;2022-10-16T14:32:40;0.30;;;0.30;;
24107;SDS011;12280;51.362;6.694;2022-10-16T14:35:21;0.15;;;0.15;;
24107;SDS011;12280;51.362;6.694;2022-10-16T14:37:50;2.63;;;1.00;;
24107;SDS011;12280;51.362;6.694;2022-10-16T14:40:16;0.10;;;0.10;;
24107;SDS011;12280;51.362;6.694;2022-10-16T14:42:43;0.15;;;0.15;;
24107;SDS011;12280;51.362;6.694;2022-10-16T14:45:10;2.65;;;0.40;;
24107;SDS011;12280;51.362;6.694;2022-10-16T14:47:36;0.20;;;0.20;;
24107;SDS011;12280;51.362;6.694;2022-10-16T14:50:12;0.10;;;0.10;;
24107;SDS011;12280;51.362;6.694;2022-10-16T14:52:38;0.20;;;0.20;;
24107;SDS011;12280;51.362;6.694;2022-10-16T14:55:04;0.15;;;0.15;;
24107;SDS011;12280;51.362;6.694;2022-10-16T14:57:31;0.40;;;0.40;;
24107;SDS011;12280;51.362;6.694;2022-10-16T14:59:59;0.10;;;0.10;;
24107;SDS011;12280;51.362;6.694;2022-10-16T15:02:29;0.80;;;0.80;;
24107;SDS011;12280;51.362;6.694;2022-10-16T15:04:56;1.75;;;0.50;;
24107;SDS011;12280;51.362;6.694;2022-10-16T15:07:22;1.25;;;1.15;;
24107;SDS011;12280;51.362;6.694;2022-10-16T15:09:52;0.40;;;0.40;;
24107;SDS011;12280;51.362;6.694;2022-10-16T15:12:18;0.82;;;0.82;;
24107;SDS011;12280;51.362;6.694;2022-10-16T15:14:44;0.15;;;0.15;;
24107;SDS011;12280;51.362;6.694;2022-10-16T15:17:10;0.40;;;0.40;;
24107;SDS011;12280;51.362;6.694;2022-10-16T15:19:37;0.32;;;0.32;;
24107;SDS011;12280;51.362;6.694;2022-10-16T15:22:03;0.20;;;0.20;;
24107;SDS011;12280;51.362;6.694;2022-10-16T15:24:29;0.73;;;0.73;;
24107;SDS011;12280;51.362;6.694;2022-10-16T15:26:55;0.43;;;0.43;;
24107;SDS011;12280;51.362;6.694;2022-10-16T15:29:21;0.10;;;0.10;;
24107;SDS011;12280;51.362;6.694;2022-10-16T15:31:47;0.20;;;0.20;;
24107;SDS011;12280;51.362;6.694;2022-10-16T15:34:13;0.50;;;0.30;;
24107;SDS011;12280;51.362;6.694;2022-10-16T15:36:39;1.07;;;1.07;;
24107;SDS011;12280;51.362;6.694;2022-10-16T15:39:08;0.30;;;0.30;;
24107;SDS011;12280;51.362;6.694;2022-10-16T15:41:37;0.40;;;0.40;;
24107;SDS011;12280;51.362;6.694;2022-10-16T15:44:03;0.43;;;0.43;;
24107;SDS011;12280;51.362;6.694;2022-10-16T15:46:29;0.93;;;0.93;;
24107;SDS011;12280;51.362;6.694;2022-10-16T15:48:56;0.20;;;0.20;;
24107;SDS011;12280;51.362;6.694;2022-10-16T15:51:23;0.30;;;0.30;;
24107;SDS011;12280;51.362;6.694;2022-10-16T15:53:49;0.30;;;0.30;;
24107;SDS011;12280;51.362;6.694;2022-10-16T15:56:16;0.20;;;0.20;;
24107;SDS011;12280;51.362;6.694;2022-10-16T15:58:42;0.20;;;0.20;;
24107;SDS011;12280;51.362;6.694;2022-10-16T16:01:09;0.30;;;0.30;;
24107;SDS011;12280;51.362;6.694;2022-10-16T16:03:36;0.30;;;0.30;;
24107;SDS011;12280;51.362;6.694;2022-10-16T16:06:04;0.50;;;0.50;;
24107;SDS011;12280;51.362;6.694;2022-10-16T16:08:32;0.80;;;0.80;;
24107;SDS011;12280;51.362;6.694;2022-10-16T16:10:59;1.00;;;1.00;;
24107;SDS011;12280;51.362;6.694;2022-10-16T16:13:25;0.20;;;0.20;;
24107;SDS011;12280;51.362;6.694;2022-10-16T16:15:51;0.20;;;0.20;;
24107;SDS011;12280;51.362;6.694;2022-10-16T16:18:17;0.40;;;0.40;;